Time;durP1;ratioP1;P1;durP2;ratioP2;P2;SDS_P1;SDS_P2;PMS_P1;PMS_P2;Temp;Humidity;BMP_temperature;BMP_pressure;BME280_temperature;BME280_humidity;BME280_pressure;Samples;Min_cycle;Max_cycle;Signal;HPM_P1;HPM_P2
2023/06/04 00:00:54;;;;;;;2.23;1.60;;;;;;;4.97;86.66;96915.06;10539954;28;20263;-67
2023/06/04 00:05:55;;;;;;;2.50;1.30;;;;;;;4.99;87.15;96913.22;10540792;28;20217;-66
2023/06/04 00:10:56;;;;;;;2.27;1.70;;;;;;;4.83;87.44;96905.75;10540769;28;20182;-66
2023/06/04 00:15:56;;;;;;;4.17;1.50;;;;;;;4.79;87.34;96904.34;10540365;28;20323;-67
2023/06/04 00:20:56;;;;;;;2.33;1.50;;;;;;;4.82;87.38;96893.72;10540116;28;20221;-67
2023/06/04 00:25:57;;;;;;;3.20;1.80;;;;;;;4.82;87.08;96887.69;10539876;28;20727;-67
2023/06/04 00:30:57;;;;;;;1.90;1.43;;;;;;;4.80;87.45;96881.78;10539818;28;20641;-66
2023/06/04 00:35:57;;;;;;;2.07;1.23;;;;;;;4.78;87.22;96881.91;10538195;28;20206;-67
2023/06/04 00:40:58;;;;;;;3.57;1.67;;;;;;;4.80;86.94;96867.03;10539480;28;20260;-67
2023/06/04 00:45:58;;;;;;;1.50;1.37;;;;;;;4.78;86.81;96866.34;10538930;28;20685;-67
2023/06/04 00:50:59;;;;;;;4.17;1.40;;;;;;;4.75;86.99;96868.34;10538806;28;20190;-67
2023/06/04 00:55:59;;;;;;;3.10;1.60;;;;;;;4.77;87.01;96866.47;10521110;28;20203;-67
2023/06/04 01:01:04;;;;;;;3.20;1.40;;;;;;;4.74;86.95;96875.28;10537892;28;20328;-67
2023/06/04 01:06:21;;;;;;;3.00;1.40;;;;;;;4.69;87.10;96871.41;10537048;28;20285;-67
2023/06/04 01:11:38;;;;;;;1.63;1.37;;;;;;;4.69;87.09;96871.41;10538160;28;20185;-66
2023/06/04 01:16:44;;;;;;;2.70;1.50;;;;;;;4.63;87.67;96867.50;10553177;23;20333;-65
2023/06/04 01:21:45;;;;;;;2.47;1.50;;;;;;;4.57;87.84;96867.97;10535927;28;20321;-65
2023/06/04 01:26:46;;;;;;;2.40;1.50;;;;;;;4.55;88.34;96865.47;10566179;28;20301;-64
2023/06/04 01:31:46;;;;;;;4.70;1.70;;;;;;;4.40;89.16;96866.63;10579547;28;20182;-64
2023/06/04 01:36:47;;;;;;;3.47;1.60;;;;;;;4.35;90.07;96879.94;10579213;28;20292;-64
2023/06/04 01:41:47;;;;;;;1.90;1.43;;;;;;;4.23;91.08;96875.66;10578976;28;20213;-63
2023/06/04 01:46:47;;;;;;;1.80;1.70;;;;;;;4.09;92.21;96880.09;10579014;28;20242;-63
2023/06/04 01:51:48;;;;;;;1.90;1.50;;;;;;;3.88;93.62;96881.66;10578800;28;20240;-64
2023/06/04 01:56:48;;;;;;;3.63;1.73;;;;;;;3.91;95.34;96887.44;10577300;28;20206;-65
2023/06/04 02:01:48;;;;;;;2.30;1.50;;;;;;;3.92;95.69;96890.84;10577136;28;20249;-64
2023/06/04 02:06:50;;;;;;;1.73;1.30;;;;;;;4.05;95.49;96880.41;10578294;28;20294;-65
2023/06/04 02:11:50;;;;;;;2.07;1.40;;;;;;;3.97;94.91;96873.22;10578146;28;20178;-65
2023/06/04 02:16:51;;;;;;;2.03;1.60;;;;;;;4.00;95.12;96869.56;10608369;27;20250;-65
2023/06/04 02:21:52;;;;;;;1.80;1.23;;;;;;;3.91;95.80;96874.47;10620474;27;20205;-65
2023/06/04 02:26:52;;;;;;;1.97;1.50;;;;;;;3.78;96.61;96885.81;10631331;27;20561;-64
2023/06/04 02:31:53;;;;;;;3.27;1.43;;;;;;;3.77;97.78;96894.53;10616127;27;20192;-64
2023/06/04 02:36:55;;;;;;;2.73;1.50;;;;;;;3.74;98.35;96893.00;10634276;27;20741;-65
2023/06/04 02:41:55;;;;;;;4.47;1.53;;;;;;;3.73;99.25;96897.34;10633909;27;20307;-65
2023/06/04 02:46:55;;;;;;;4.73;1.70;;;;;;;3.68;99.28;96889.06;10628630;27;20234;-65
2023/06/04 02:51:56;;;;;;;2.87;1.60;;;;;;;3.66;100.00;96892.69;10572900;28;20539;-65
2023/06/04 02:56:56;;;;;;;5.80;1.63;;;;;;;3.75;100.00;96897.22;10591063;28;20213;-64
2023/06/04 03:01:57;;;;;;;3.03;2.00;;;;;;;3.76;99.64;96896.31;10591383;27;20779;-63
2023/06/04 03:06:57;;;;;;;1.73;1.53;;;;;;;3.55;100.00;96896.91;10633598;27;20626;-65
2023/06/04 03:12:01;;;;;;;2.53;1.70;;;;;;;3.40;100.00;96908.34;10633750;27;20177;-64
2023/06/04 03:17:07;;;;;;;2.23;1.43;;;;;;;3.44;100.00;96917.53;10633769;27;20225;-65
2023/06/04 03:22:09;;;;;;;3.00;1.80;;;;;;;3.54;100.00;96909.97;10615208;27;20216;-65
2023/06/04 03:27:10;;;;;;;1.93;1.23;;;;;;;3.65;100.00;96912.59;10598337;27;20232;-64
2023/06/04 03:32:12;;;;;;;4.67;1.60;;;;;;;3.70;100.00;96907.91;10615106;27;20178;-63
2023/06/04 03:37:13;;;;;;;2.20;1.70;;;;;;;3.76;100.00;96919.63;10628535;27;20292;-64
2023/06/04 03:42:13;;;;;;;4.33;1.67;;;;;;;3.70;100.00;96914.88;10608134;27;20215;-64
2023/06/04 03:47:14;;;;;;;3.87;1.50;;;;;;;3.72;100.00;96924.19;10608106;27;20220;-65
2023/06/04 03:52:15;;;;;;;3.70;1.87;;;;;;;3.82;100.00;96923.53;10607902;27;20184;-65
2023/06/04 03:57:16;;;;;;;2.67;1.50;;;;;;;3.96;100.00;96925.16;10607529;27;20584;-63
2023/06/04 04:02:18;;;;;;;2.47;1.53;;;;;;;3.97;100.00;96912.09;10607222;27;20347;-65
2023/06/04 04:07:18;;;;;;;3.30;1.60;;;;;;;4.17;100.00;96910.63;10607043;27;20745;-65
2023/06/04 04:12:20;;;;;;;1.60;1.40;;;;;;;4.50;99.44;96921.25;10607190;27;20682;-64
2023/06/04 04:17:21;;;;;;;4.90;1.80;;;;;;;4.73;97.08;96912.59;10625070;27;20232;-65
2023/06/04 04:22:21;;;;;;;2.70;1.40;;;;;;;4.95;96.67;96914.38;10606603;27;20221;-64
2023/06/04 04:27:23;;;;;;;4.07;1.90;;;;;;;5.15;96.01;96910.25;10606257;27;20235;-64
2023/06/04 04:32:23;;;;;;;2.20;1.67;;;;;;;5.34;94.28;96898.44;10606462;27;20189;-65
2023/06/04 04:37:24;;;;;;;3.00;1.73;;;;;;;5.52;92.81;96891.00;10624344;27;20299;-65
2023/06/04 04:42:27;;;;;;;3.17;1.50;;;;;;;5.68;91.29;96891.44;10623962;27;20365;-65
2023/06/04 04:47:28;;;;;;;2.40;1.50;;;;;;;5.92;90.55;96887.00;10605070;27;20209;-65
2023/06/04 04:52:28;;;;;;;4.07;1.93;;;;;;;6.31;89.07;96890.78;10605553;27;20184;-66
2023/06/04 04:57:29;;;;;;;2.03;1.60;;;;;;;6.64;87.46;96883.75;10623934;27;20605;-66
2023/06/04 05:02:31;;;;;;;5.20;1.50;;;;;;;7.01;86.59;96890.25;10605059;27;20224;-66
2023/06/04 05:07:31;;;;;;;2.20;1.50;;;;;;;7.28;84.46;96887.09;10623302;27;20243;-66
2023/06/04 05:12:32;;;;;;;5.50;1.90;;;;;;;7.60;83.74;96880.88;10604370;27;20229;-66
2023/06/04 05:17:35;;;;;;;2.60;1.87;;;;;;;7.93;82.72;96873.66;10579094;28;20715;-66
2023/06/04 05:22:40;;;;;;;2.33;1.67;;;;;;;8.29;81.36;96860.88;10578726;28;20218;-66
2023/06/04 05:27:42;;;;;;;7.33;1.50;;;;;;;8.68;80.10;96861.69;10578084;28;20656;-66
2023/06/04 05:32:45;;;;;;;3.37;1.63;;;;;;;9.01;77.68;96856.91;10578168;28;20186;-65
2023/06/04 05:37:53;;;;;;;4.23;1.57;;;;;;;9.33;77.34;96857.50;10577930;28;20214;-65
2023/06/04 05:42:54;;;;;;;3.77;2.00;;;;;;;9.80;76.38;96852.94;10577846;28;20202;-66
2023/06/04 05:47:55;;;;;;;1.50;1.40;;;;;;;10.21;73.80;96839.41;10578961;28;20690;-65
2023/06/04 05:52:56;;;;;;;3.57;1.60;;;;;;;10.63;72.70;96833.53;10577760;28;20925;-66
2023/06/04 05:57:57;;;;;;;2.33;1.67;;;;;;;11.09;69.88;96799.22;10576941;28;20202;-66
2023/06/04 06:02:58;;;;;;;1.77;1.40;;;;;;;11.71;68.18;96803.34;10577258;28;20189;-67
2023/06/04 06:08:08;;;;;;;5.82;1.60;;;;;;;12.61;64.53;96761.31;10577092;28;20217;-64
2023/06/04 06:13:09;;;;;;;2.70;1.40;;;;;;;13.37;60.04;96713.53;10576968;28;20252;-65
2023/06/04 06:18:09;;;;;;;1.60;1.45;;;;;;;14.04;60.09;96739.22;10576774;28;20256;-64
2023/06/04 06:23:10;;;;;;;6.85;1.35;;;;;;;15.46;54.24;96667.03;10578141;28;20192;-65
2023/06/04 06:28:15;;;;;;;3.50;1.50;;;;;;;15.87;52.87;96663.75;10577600;28;20182;-65
2023/06/04 06:33:16;;;;;;;2.63;1.20;;;;;;;17.16;46.05;96578.78;10576489;28;20676;-65
2023/06/04 06:38:16;;;;;;;1.95;1.38;;;;;;;19.10;40.70;96539.38;10577638;28;20255;-65
2023/06/04 06:43:16;;;;;;;2.13;1.30;;;;;;;19.51;39.18;96530.06;10577640;28;20213;-66
2023/06/04 06:48:17;;;;;;;3.20;1.20;;;;;;;19.77;39.08;96545.00;10577602;28;20180;-67
2023/06/04 06:53:17;;;;;;;1.92;1.08;;;;;;;20.65;36.96;96526.22;10577681;28;20181;-66
2023/06/04 06:58:17;;;;;;;5.20;1.30;;;;;;;20.44;36.56;96530.97;10577325;28;20234;-68
2023/06/04 07:03:18;;;;;;;3.30;1.25;;;;;;;20.44;38.54;96596.66;10576975;28;20194;-66
2023/06/04 07:08:18;;;;;;;8.32;1.75;;;;;;;20.96;35.81;96532.34;10577380;28;20244;-67
2023/06/04 07:13:18;;;;;;;3.28;1.30;;;;;;;19.50;37.62;96548.88;10583600;28;20196;-67
2023/06/04 07:18:19;;;;;;;1.27;1.17;;;;;;;20.35;37.10;96577.53;10604712;22;20246;-64
2023/06/04 07:23:19;;;;;;;3.88;1.42;;;;;;;21.28;36.09;96586.19;10584685;28;20198;-66
2023/06/04 07:28:19;;;;;;;2.92;1.20;;;;;;;21.98;34.84;96576.69;10584869;28;20206;-63
2023/06/04 07:33:20;;;;;;;3.47;1.20;;;;;;;21.17;35.50;96568.31;10584324;28;20205;-63
2023/06/04 07:38:20;;;;;;;4.70;1.20;;;;;;;20.53;36.27;96579.38;10584267;28;20218;-64
2023/06/04 07:43:21;;;;;;;2.15;1.50;;;;;;;20.37;35.78;96556.00;10583993;28;20185;-62
2023/06/04 07:48:21;;;;;;;5.82;1.15;;;;;;;20.95;35.35;96562.69;10583708;28;20773;-64
2023/06/04 07:53:22;;;;;;;5.43;1.35;;;;;;;20.96;36.32;96590.94;10583714;28;20647;-63
2023/06/04 07:58:23;;;;;;;1.50;1.40;;;;;;;20.15;38.81;96641.56;10583229;28;20222;-63
2023/06/04 08:03:24;;;;;;;6.10;1.20;;;;;;;20.99;36.41;96604.63;10583149;28;20182;-61
2023/06/04 08:08:24;;;;;;;10.90;1.50;;;;;;;20.92;37.39;96630.53;10582938;28;20206;-64
2023/06/04 08:13:25;;;;;;;1.95;1.48;;;;;;;20.35;39.20;96661.84;10582840;28;20243;-63
2023/06/04 08:18:25;;;;;;;1.92;1.27;;;;;;;20.23;38.26;96632.50;10622002;27;20233;-62
2023/06/04 08:23:25;;;;;;;3.88;1.50;;;;;;;20.88;37.06;96620.56;10623983;27;20679;-60
2023/06/04 08:28:26;;;;;;;4.50;1.73;;;;;;;20.10;37.44;96593.56;10624703;27;20209;-62
2023/06/04 08:33:26;;;;;;;3.63;1.60;;;;;;;21.70;35.50;96606.69;10624302;27;20189;-63
2023/06/04 08:38:27;;;;;;;2.38;1.42;;;;;;;22.76;34.64;96638.69;10624284;27;20753;-64
2023/06/04 08:43:29;;;;;;;4.13;1.40;;;;;;;23.18;33.22;96605.56;10624178;27;20727;-62
2023/06/04 08:48:30;;;;;;;4.00;1.10;;;;;;;21.78;34.44;96578.91;10605921;27;20691;-62
2023/06/04 08:53:31;;;;;;;2.25;1.20;;;;;;;21.84;33.92;96572.63;10624105;27;20284;-62
2023/06/04 08:58:34;;;;;;;4.88;1.45;;;;;;;21.80;34.12;96585.59;10623973;27;20217;-59
2023/06/04 09:03:37;;;;;;;2.83;1.50;;;;;;;23.01;31.42;96546.72;10623865;27;20230;-59
2023/06/04 09:08:40;;;;;;;4.57;1.60;;;;;;;23.11;32.88;96610.28;10623591;27;20205;-61
2023/06/04 09:13:43;;;;;;;2.42;1.20;;;;;;;22.80;30.99;96525.00;10605343;27;20203;-61
2023/06/04 09:18:44;;;;;;;2.47;1.40;;;;;;;22.38;34.99;96649.91;10579298;28;20740;-60
2023/06/04 09:23:47;;;;;;;4.43;1.42;;;;;;;23.35;33.46;96631.53;10580185;28;20197;-63
2023/06/04 09:28:47;;;;;;;1.85;1.40;;;;;;;23.25;33.36;96626.84;10580269;28;20231;-62
2023/06/04 09:33:50;;;;;;;2.10;1.30;;;;;;;24.30;31.03;96600.41;10579034;28;20193;-61
2023/06/04 09:38:51;;;;;;;2.03;1.10;;;;;;;23.82;31.18;96585.78;10579752;28;20209;-63
2023/06/04 09:44:02;;;;;;;5.45;1.30;;;;;;;24.45;30.16;96565.00;10578208;28;20186;-62
2023/06/04 09:49:05;;;;;;;4.00;1.40;;;;;;;23.61;30.97;96569.41;10579484;28;20273;-63
2023/06/04 09:54:05;;;;;;;4.10;1.30;;;;;;;23.77;31.10;96572.34;10579405;28;20206;-62
2023/06/04 09:59:05;;;;;;;2.97;1.50;;;;;;;23.30;32.31;96586.81;10579724;28;20253;-62
2023/06/04 10:04:07;;;;;;;5.45;1.50;;;;;;;23.70;31.34;96580.53;10578633;28;20253;-64
2023/06/04 10:09:09;;;;;;;2.78;1.20;;;;;;;23.79;31.66;96597.78;10578814;28;20277;-65
2023/06/04 10:14:32;;;;;;;4.72;1.50;;;;;;;24.45;29.50;96535.53;10581364;27;20256;-62
2023/06/04 10:19:34;;;;;;;5.00;1.23;;;;;;;25.73;28.71;96565.53;10621012;27;20300;-67
2023/06/04 10:24:35;;;;;;;2.80;1.45;;;;;;;25.12;29.95;96586.41;10620807;27;20553;-63
2023/06/04 10:29:35;;;;;;;5.82;1.80;;;;;;;24.53;27.88;96481.56;10620783;28;20205;-62
2023/06/04 10:34:36;;;;;;;1.80;0.95;;;;;;;26.68;26.70;96550.50;10602034;28;20212;-64
2023/06/04 10:39:36;;;;;;;2.45;1.30;;;;;;;25.86;26.84;96504.41;10620321;28;20269;-64
2023/06/04 10:44:46;;;;;;;4.50;1.60;;;;;;;25.89;28.12;96546.84;10620131;27;20217;-65
2023/06/04 10:49:46;;;;;;;3.40;1.20;;;;;;;25.52;27.44;96505.53;10628742;27;20449;-63
2023/06/04 10:54:53;;;;;;;3.33;1.30;;;;;;;24.65;28.67;96507.41;10628757;27;20205;-62
2023/06/04 10:59:57;;;;;;;4.30;1.40;;;;;;;25.36;28.01;96514.53;10628242;27;20306;-63
2023/06/04 11:05:06;;;;;;;4.03;1.50;;;;;;;26.69;25.48;96493.81;10628177;27;20737;-63
2023/06/04 11:10:07;;;;;;;2.15;1.00;;;;;;;26.30;26.67;96517.56;10628222;27;20189;-63
2023/06/04 11:15:07;;;;;;;2.17;1.40;;;;;;;26.47;26.97;96530.78;10627902;27;20729;-65
2023/06/04 11:20:18;;;;;;;1.67;1.30;;;;;;;25.60;28.35;96547.97;10627508;27;20223;-63
2023/06/04 11:25:19;;;;;;;4.80;1.35;;;;;;;25.09;25.53;96413.50;10627416;27;20213;-64
2023/06/04 11:30:20;;;;;;;2.50;1.25;;;;;;;25.61;28.06;96525.44;10627436;27;20185;-64
2023/06/04 11:35:20;;;;;;;5.13;1.10;;;;;;;25.73;25.96;96462.75;10627064;27;20205;-65
2023/06/04 11:40:21;;;;;;;3.53;1.13;;;;;;;26.88;26.89;96545.16;10627117;27;20213;-64
2023/06/04 11:45:22;;;;;;;2.22;1.33;;;;;;;27.25;25.13;96489.56;10626964;27;20208;-63
2023/06/04 11:50:26;;;;;;;2.72;1.23;;;;;;;25.49;26.85;96492.63;10626363;27;20659;-65
2023/06/04 11:55:26;;;;;;;2.20;1.50;;;;;;;26.75;25.59;96483.84;10626179;27;20304;-64
2023/06/04 12:00:28;;;;;;;2.60;1.10;;;;;;;27.45;24.86;96494.16;10624153;27;20300;-65
2023/06/04 12:05:29;;;;;;;3.28;1.15;;;;;;;26.35;26.33;96493.38;10625786;27;20766;-64
2023/06/04 12:10:39;;;;;;;3.35;1.17;;;;;;;26.54;26.12;96499.13;10625526;27;20190;-63
2023/06/04 12:15:39;;;;;;;1.85;1.33;;;;;;;26.95;25.62;96503.78;10624944;27;20743;-63
2023/06/04 12:20:41;;;;;;;2.33;1.75;;;;;;;27.80;23.95;96495.19;10606727;27;20274;-63
2023/06/04 12:25:43;;;;;;;4.68;1.20;;;;;;;27.93;23.75;96481.16;10624414;27;20213;-64
2023/06/04 12:30:43;;;;;;;2.72;1.35;;;;;;;28.31;23.36;96475.38;10624675;27;20185;-64
2023/06/04 12:35:45;;;;;;;2.17;1.17;;;;;;;30.05;21.88;96496.78;10624434;27;20253;-64
2023/06/04 12:40:45;;;;;;;2.05;1.30;;;;;;;29.37;23.10;96497.69;10623853;27;20229;-64
2023/06/04 12:45:45;;;;;;;2.53;1.27;;;;;;;27.43;24.88;96477.47;10624149;27;20582;-64
2023/06/04 12:50:46;;;;;;;3.65;1.20;;;;;;;28.09;24.91;96505.38;10623388;27;20197;-64
2023/06/04 12:55:46;;;;;;;2.27;1.27;;;;;;;28.34;24.29;96498.28;10623451;27;20233;-63
2023/06/04 13:00:46;;;;;;;4.27;1.53;;;;;;;28.58;23.43;96471.47;10623155;27;20490;-63
2023/06/04 13:05:47;;;;;;;1.90;1.33;;;;;;;28.43;23.81;96478.56;10622916;27;20458;-63
2023/06/04 13:10:48;;;;;;;4.35;1.35;;;;;;;27.31;24.96;96479.63;10622783;27;20510;-63
2023/06/04 13:15:48;;;;;;;1.95;1.30;;;;;;;28.49;24.83;96530.53;10607867;22;20243;-67
2023/06/04 13:20:50;;;;;;;3.13;1.20;;;;;;;28.40;23.75;96462.13;10493081;28;20262;-67
2023/06/04 13:25:50;;;;;;;3.03;1.30;;;;;;;29.45;22.96;96497.88;10495364;28;20336;-68
2023/06/04 13:30:50;;;;;;;3.08;1.33;;;;;;;30.48;22.08;96506.84;10495407;28;20942;-68
2023/06/04 13:35:51;;;;;;;9.10;1.60;;;;;;;28.72;22.92;96432.06;10494957;28;20234;-67
2023/06/04 13:40:52;;;;;;;2.28;1.50;;;;;;;31.27;20.83;96496.25;10494784;28;20480;-68
2023/06/04 13:45:52;;;;;;;3.03;1.45;;;;;;;31.60;21.66;96509.81;10494695;28;20214;-68
2023/06/04 13:50:53;;;;;;;4.43;1.40;;;;;;;30.12;22.48;96494.53;10494305;28;20187;-68
2023/06/04 13:55:57;;;;;;;1.43;1.33;;;;;;;31.55;21.94;96533.44;10494499;28;20500;-68
2023/06/04 14:00:58;;;;;;;3.35;1.10;;;;;;;31.95;20.93;96491.28;10469711;28;20544;-67
2023/06/04 14:05:59;;;;;;;5.10;1.50;;;;;;;32.62;20.92;96508.97;10486251;28;20222;-68
2023/06/04 14:10:59;;;;;;;4.38;1.65;;;;;;;31.23;22.48;96506.06;10492612;28;20990;-67
2023/06/04 14:16:00;;;;;;;1.63;1.37;;;;;;;30.60;22.57;96488.28;10491479;28;20234;-67
2023/06/04 14:21:00;;;;;;;3.40;1.50;;;;;;;30.80;22.14;96480.97;10492885;28;20563;-67
2023/06/04 14:26:01;;;;;;;3.23;1.43;;;;;;;31.22;21.54;96479.28;10493395;28;20456;-67
2023/06/04 14:31:01;;;;;;;3.03;1.30;;;;;;;33.62;19.74;96487.41;10493637;28;20425;-67
2023/06/04 14:36:01;;;;;;;5.63;1.30;;;;;;;33.64;18.73;96452.59;10493376;28;20212;-67
2023/06/04 14:41:02;;;;;;;3.87;1.43;;;;;;;32.71;21.28;96493.59;10493306;28;20525;-68
2023/06/04 14:46:03;;;;;;;2.97;1.50;;;;;;;33.58;19.84;96479.06;10493239;28;20484;-67
2023/06/04 14:51:03;;;;;;;2.33;1.60;;;;;;;30.76;22.13;96435.59;10475399;28;20214;-67
2023/06/04 14:56:03;;;;;;;1.93;1.53;;;;;;;29.42;23.05;96411.25;10493127;28;20271;-67
2023/06/04 15:01:04;;;;;;;2.63;1.27;;;;;;;32.20;21.80;96505.47;10492626;28;20473;-67
2023/06/04 15:06:04;;;;;;;2.50;1.35;;;;;;;31.98;20.60;96444.63;10492966;28;20606;-67
2023/06/04 15:11:04;;;;;;;4.80;1.50;;;;;;;31.54;21.33;96459.53;10492732;28;20202;-68
2023/06/04 15:16:05;;;;;;;2.00;1.47;;;;;;;31.64;21.26;96461.28;10492456;28;20597;-68
2023/06/04 15:21:05;;;;;;;4.03;1.40;;;;;;;31.76;21.11;96458.06;10492268;28;20828;-68
2023/06/04 15:26:06;;;;;;;6.63;1.50;;;;;;;30.74;22.42;96474.84;10492383;28;21000;-68
2023/06/04 15:31:06;;;;;;;1.50;1.30;;;;;;;32.63;20.59;96475.28;10493625;28;20803;-68
2023/06/04 15:36:06;;;;;;;1.73;1.47;;;;;;;32.20;20.83;96472.94;10499621;28;20866;-68
2023/06/04 15:41:07;;;;;;;3.35;1.15;;;;;;;31.91;21.08;96462.41;10499599;28;20842;-68
2023/06/04 15:46:07;;;;;;;1.85;1.40;;;;;;;31.26;20.71;96426.97;10499131;28;20238;-68
2023/06/04 15:51:07;;;;;;;1.87;1.60;;;;;;;31.38;21.11;96445.47;10499317;28;20199;-68
2023/06/04 15:56:08;;;;;;;3.67;1.30;;;;;;;29.07;21.76;96361.94;10498769;28;20472;-68
2023/06/04 16:01:08;;;;;;;1.67;1.40;;;;;;;29.50;22.66;96435.75;10498795;28;20499;-68
2023/06/04 16:06:10;;;;;;;1.52;1.40;;;;;;;27.53;24.66;96417.44;10498647;28;20306;-68
2023/06/04 16:11:10;;;;;;;2.13;1.50;;;;;;;25.27;26.00;96372.88;10498336;28;20213;-67
2023/06/04 16:16:11;;;;;;;3.07;1.73;;;;;;;24.47;26.72;96380.81;10498311;28;20584;-68
2023/06/04 16:21:11;;;;;;;2.00;1.58;;;;;;;23.34;26.00;96307.28;10497742;28;20840;-70
2023/06/04 16:26:11;;;;;;;3.17;1.73;;;;;;;23.27;26.88;96344.06;10497950;28;20221;-69
2023/06/04 16:31:12;;;;;;;4.78;1.20;;;;;;;22.91;27.87;96367.56;10497628;28;20183;-68
2023/06/04 16:36:12;;;;;;;6.50;1.60;;;;;;;22.79;28.22;96381.03;10497483;28;20300;-69
2023/06/04 16:41:13;;;;;;;3.30;1.40;;;;;;;22.64;28.74;96389.56;10497341;28;20227;-68
2023/06/04 16:46:13;;;;;;;1.92;1.48;;;;;;;22.48;28.15;96379.69;10496207;28;20577;-68
2023/06/04 16:51:14;;;;;;;3.10;1.55;;;;;;;22.27;27.85;96356.09;10497182;28;20657;-69
2023/06/04 16:56:14;;;;;;;4.40;1.50;;;;;;;22.18;27.57;96349.53;10496505;28;20715;-68
2023/06/04 17:01:14;;;;;;;2.30;1.52;;;;;;;22.05;27.92;96355.13;10478679;28;20690;-69
2023/06/04 17:06:15;;;;;;;3.88;1.50;;;;;;;21.41;29.11;96374.66;10496135;28;20337;-69
2023/06/04 17:11:15;;;;;;;2.15;1.40;;;;;;;21.04;30.08;96401.50;10495890;28;20206;-68
2023/06/04 17:16:15;;;;;;;1.88;1.30;;;;;;;21.36;28.31;96369.19;10495593;28;20807;-69
2023/06/04 17:21:16;;;;;;;3.35;1.30;;;;;;;20.99;29.65;96396.88;10495413;28;20727;-68
2023/06/04 17:26:17;;;;;;;2.45;1.48;;;;;;;21.02;28.66;96367.13;10495472;28;20567;-68
2023/06/04 17:31:18;;;;;;;8.57;1.40;;;;;;;20.73;30.70;96418.63;10495067;28;20190;-68
2023/06/04 17:36:20;;;;;;;8.27;1.48;;;;;;;20.67;30.44;96425.66;10494933;28;20618;-68
2023/06/04 17:41:20;;;;;;;2.78;1.25;;;;;;;20.35;30.85;96414.44;10494686;28;20214;-68
2023/06/04 17:46:20;;;;;;;1.40;1.25;;;;;;;20.17;30.76;96410.78;10494574;28;20652;-68
2023/06/04 17:51:21;;;;;;;3.28;1.27;;;;;;;20.17;29.71;96386.00;10494469;28;20198;-68
2023/06/04 17:56:21;;;;;;;1.48;1.25;;;;;;;19.74;31.92;96424.94;10493440;28;20296;-68
2023/06/04 18:01:22;;;;;;;2.17;1.50;;;;;;;19.50;32.84;96463.88;10493821;28;20285;-68
2023/06/04 18:06:24;;;;;;;2.17;1.60;;;;;;;19.49;32.43;96455.06;10494256;28;20238;-68
2023/06/04 18:11:25;;;;;;;2.70;1.50;;;;;;;19.17;34.43;96502.13;10494174;28;20183;-67
2023/06/04 18:16:25;;;;;;;1.65;1.40;;;;;;;19.06;33.95;96501.78;10493928;28;20242;-68
2023/06/04 18:21:26;;;;;;;5.55;2.05;;;;;;;18.91;36.78;96585.44;10494111;28;20234;-67
2023/06/04 18:26:26;;;;;;;4.88;1.63;;;;;;;18.44;36.84;96567.06;10493893;28;20230;-68
2023/06/04 18:31:26;;;;;;;2.67;1.70;;;;;;;17.99;38.26;96607.53;10493405;28;20684;-67
2023/06/04 18:36:28;;;;;;;2.42;1.60;;;;;;;17.05;40.58;96635.75;10493474;28;20218;-67
2023/06/04 18:41:28;;;;;;;5.40;1.60;;;;;;;16.29;43.95;96703.50;10493185;28;20268;-67
2023/06/04 18:46:28;;;;;;;3.10;1.40;;;;;;;15.51;45.74;96728.03;10493626;28;20586;-67
2023/06/04 18:51:29;;;;;;;3.20;2.13;;;;;;;15.44;45.46;96731.59;10493022;28;20195;-67
2023/06/04 18:56:30;;;;;;;3.50;1.60;;;;;;;14.37;48.39;96767.09;10492887;28;20229;-66
2023/06/04 19:01:30;;;;;;;3.90;1.85;;;;;;;13.48;51.72;96815.78;10492539;28;20223;-66
2023/06/04 19:06:30;;;;;;;5.32;1.83;;;;;;;13.41;52.14;96816.63;10494532;28;20692;-66
2023/06/04 19:11:31;;;;;;;5.85;1.80;;;;;;;13.17;52.89;96829.69;10500997;28;20657;-66
2023/06/04 19:16:31;;;;;;;3.08;1.90;;;;;;;12.98;54.02;96849.28;10530697;22;20723;-63
2023/06/04 19:21:32;;;;;;;6.38;1.90;;;;;;;12.77;53.21;96818.31;10541131;28;20242;-65
2023/06/04 19:26:32;;;;;;;9.07;2.00;;;;;;;12.61;53.22;96816.50;10542070;28;20241;-62
2023/06/04 19:31:32;;;;;;;4.63;2.03;;;;;;;12.62;52.72;96812.91;10542323;28;20191;-61
2023/06/04 19:36:33;;;;;;;3.50;1.70;;;;;;;12.41;53.08;96812.59;10541948;28;20210;-63
2023/06/04 19:41:33;;;;;;;2.67;1.65;;;;;;;12.20;53.63;96826.22;10541424;28;20253;-63
2023/06/04 19:46:34;;;;;;;3.40;1.60;;;;;;;12.05;54.04;96826.88;10541783;28;20225;-63
2023/06/04 19:51:34;;;;;;;1.77;1.63;;;;;;;11.95;54.42;96832.28;10536719;28;20179;-60
2023/06/04 19:56:36;;;;;;;5.87;2.03;;;;;;;11.88;54.22;96839.13;10536990;28;20217;-63
2023/06/04 20:01:37;;;;;;;11.95;1.77;;;;;;;11.72;54.65;96844.34;10535690;28;20227;-61
2023/06/04 20:06:37;;;;;;;3.35;1.70;;;;;;;11.51;55.77;96857.91;10537053;28;20237;-63
2023/06/04 20:11:38;;;;;;;4.13;1.77;;;;;;;11.40;55.94;96857.19;10536315;28;20328;-62
2023/06/04 20:16:38;;;;;;;2.53;1.42;;;;;;;11.17;56.94;96870.03;10534493;28;20240;-61
2023/06/04 20:21:38;;;;;;;3.33;1.53;;;;;;;11.00;57.31;96879.63;10533648;28;20317;-62
2023/06/04 20:26:39;;;;;;;2.40;1.80;;;;;;;10.77;58.08;96886.34;10526301;28;20297;-62
2023/06/04 20:31:40;;;;;;;2.30;1.40;;;;;;;10.74;58.44;96892.72;10536670;28;20213;-63
2023/06/04 20:36:40;;;;;;;2.73;1.87;;;;;;;10.56;58.47;96900.59;10539433;28;20213;-62
2023/06/04 20:41:41;;;;;;;1.40;1.30;;;;;;;10.40;59.53;96905.69;10539497;28;20222;-64
2023/06/04 20:46:41;;;;;;;1.77;1.43;;;;;;;10.25;60.42;96914.06;10539268;28;20222;-64
2023/06/04 20:51:42;;;;;;;8.00;2.03;;;;;;;10.10;60.77;96926.84;10539140;28;20657;-62
2023/06/04 20:56:42;;;;;;;6.27;1.90;;;;;;;9.93;61.22;96925.84;10539063;28;20782;-62
2023/06/04 21:01:43;;;;;;;6.80;1.77;;;;;;;9.80;61.42;96941.06;10538203;28;20730;-64
2023/06/04 21:06:43;;;;;;;1.30;1.20;;;;;;;9.72;61.29;96930.50;10538226;28;20230;-61
2023/06/04 21:11:43;;;;;;;3.10;1.70;;;;;;;9.55;62.52;96940.75;10538114;28;20189;-59
2023/06/04 21:16:44;;;;;;;3.30;1.70;;;;;;;9.44;62.70;96947.00;10537890;28;20242;-60
2023/06/04 21:21:44;;;;;;;2.87;1.70;;;;;;;9.41;63.09;96949.09;10537829;28;20249;-62
2023/06/04 21:26:44;;;;;;;4.37;1.77;;;;;;;9.24;63.53;96951.47;10537518;28;20222;-61
2023/06/04 21:31:45;;;;;;;3.83;1.70;;;;;;;9.13;64.37;96959.50;10537519;28;20196;-61
2023/06/04 21:36:45;;;;;;;2.17;1.60;;;;;;;8.97;64.34;96957.44;10537195;28;20230;-64
2023/06/04 21:41:45;;;;;;;5.73;1.70;;;;;;;8.80;65.30;96968.63;10537180;28;20225;-61
2023/06/04 21:46:46;;;;;;;2.13;1.47;;;;;;;8.71;65.59;96967.66;10536973;28;20222;-62
2023/06/04 21:51:46;;;;;;;2.97;1.60;;;;;;;8.64;65.42;96959.56;10536947;28;20229;-62
2023/06/04 21:56:47;;;;;;;2.87;1.40;;;;;;;8.58;65.89;96975.78;10536498;28;20209;-62
2023/06/04 22:01:47;;;;;;;2.27;1.63;;;;;;;8.53;66.04;96976.19;10536120;28;20313;-60
2023/06/04 22:06:47;;;;;;;9.17;1.80;;;;;;;8.37;66.90;96988.91;10536704;28;20238;-62
2023/06/04 22:11:48;;;;;;;1.97;1.40;;;;;;;8.30;67.23;96982.59;10536232;28;20202;-62
2023/06/04 22:16:48;;;;;;;2.07;1.80;;;;;;;8.25;67.01;96966.53;10535807;28;20246;-62
2023/06/04 22:21:48;;;;;;;1.90;1.60;;;;;;;8.18;67.33;96964.44;10535680;28;20236;-62
2023/06/04 22:26:49;;;;;;;2.57;1.50;;;;;;;8.04;67.71;96962.25;10517664;28;20245;-59
2023/06/04 22:31:49;;;;;;;2.93;1.80;;;;;;;7.91;68.93;96974.69;10517451;28;20182;-61
2023/06/04 22:36:50;;;;;;;3.13;1.57;;;;;;;7.89;68.62;96958.34;10517556;28;20348;-61
2023/06/04 22:41:50;;;;;;;3.00;1.50;;;;;;;7.77;69.40;96974.09;10537959;28;20668;-62
2023/06/04 22:46:50;;;;;;;1.73;1.33;;;;;;;7.68;69.94;96973.09;10543718;28;20757;-62
2023/06/04 22:51:51;;;;;;;1.47;1.37;;;;;;;7.66;69.59;96963.78;10525691;28;20558;-60
2023/06/04 22:56:51;;;;;;;2.43;1.53;;;;;;;7.58;70.11;96964.44;10525359;28;20700;-62
2023/06/04 23:01:52;;;;;;;3.30;1.97;;;;;;;7.63;69.76;96949.22;10525271;28;20711;-61
2023/06/04 23:06:52;;;;;;;3.20;1.77;;;;;;;7.54;70.37;96950.00;10543105;28;20212;-62
2023/06/04 23:11:52;;;;;;;5.53;1.53;;;;;;;7.46;71.15;96949.84;10543187;28;20191;-62
2023/06/04 23:16:53;;;;;;;5.63;1.77;;;;;;;7.45;70.84;96956.00;10524399;28;20823;-62
2023/06/04 23:21:54;;;;;;;4.00;1.50;;;;;;;7.35;71.32;96953.38;10524388;28;20233;-62